Lenox, Massachusetts
Current Conditions -  °F | °C
As of 9:54 AM on Thursday 18 Dec 2014 (Local Time) from KPSF Reporting Station
Overcast Overcast  
Wind Chill: 22°   Ceiling: 1300
Heat Index: 31°   Visibility: 10mi
Dew Point: 26°   Wind: 12mph
Humidity: 82%   Direction: 280°W
Pressure: 29.86"   Gusts: 25mph
Location:  42.36°N, 73.28°W
Report Text: KPSF 181454Z AUTO 28010G22KT 10SM OVC013 M01/M03 A2986 RMK AO2 SLP119 60000 T10061033 51016
Loading
Personal Weather Stations






























Interactive Weather Map New forecast layout! Learn more

10-Day Weather Forecast

Advertisements
Track Severe Weather on mobile